Main page
METAR-TAF:

METAR-TAF

Airports :

Carrasco International Airport

Montevideo, Uruguay

latitude: 34-50S, longitude: 056-00W, elevation: 32 m

Current weather observation

The report was made 43 minutes ago, at 03:00 UTC
Wind 4 kt from the East/Northeast
Temperature 17°C
Humidity 77%
Pressure 1018 hPa
Visibility 10 km or more
no clouds below 1500 m and no cumulonimbus

METAR: SUMU 230300Z 07004KT CAVOK 17/13 Q1018 NOSIG

Time: 00:43 (03:43 UTC)

Forecast

The report was made 4 hours and 13 minutes ago, at 23:30 UTC
Forecast valid from 23 at 00 UTC to 23 at 24 UTC
Wind 5 kt from the East/Southeast
Visibility 10 km or more
no clouds below 1500 m and no cumulonimbus
Becoming
from 23 at 06 UTC to 23 at 08 UTC
Wind 5 kt from the North/Northeast
Probability 30% :
Temporary
from 23 at 06 UTC to 23 at 11 UTC
Visibility: 5000 m
mist

TAF: SUMU 222330Z 2300/2324 11005KT CAVOK TX24/2318Z TN12/2309Z BECMG 2306/2308 02005KT PROB30 TEMPO 2306/2311 5000 BR NSC

Weather observations and forecasts of more than 4000 airports (METAR and TAF reports).

The available stations are represented by yellow and red dots on the map.

Hover mouse over dot to see the name of the station.

Then click to see weather observations and forecasts.

To change the map : click on the green buttons with a black cross to zoom in, on the green button with a dash to zoom out, or on the green arrows for adjacent maps.


METAR-TAF: